sensor_id;sensor_type;location;lat;lon;timestamp;P1;durP1;ratioP1;P2;durP2;ratioP2
72125;SDS011;59999;51.676;22.650;2023-05-21T00:00:08;5.70;;;2.13;;
72125;SDS011;59999;51.676;22.650;2023-05-21T00:02:56;7.03;;;2.57;;
72125;SDS011;59999;51.676;22.650;2023-05-21T00:05:23;8.95;;;2.90;;
72125;SDS011;59999;51.676;22.650;2023-05-21T00:07:49;6.70;;;1.95;;
72125;SDS011;59999;51.676;22.650;2023-05-21T00:10:17;7.00;;;1.85;;
72125;SDS011;59999;51.676;22.650;2023-05-21T00:12:44;6.05;;;1.90;;
72125;SDS011;59999;51.676;22.650;2023-05-21T00:15:10;6.47;;;2.03;;
72125;SDS011;59999;51.676;22.650;2023-05-21T00:17:36;5.97;;;2.00;;
72125;SDS011;59999;51.676;22.650;2023-05-21T00:20:03;6.03;;;2.17;;
72125;SDS011;59999;51.676;22.650;2023-05-21T00:22:33;8.85;;;2.97;;
72125;SDS011;59999;51.676;22.650;2023-05-21T00:25:00;5.78;;;2.20;;
72125;SDS011;59999;51.676;22.650;2023-05-21T00:27:27;8.53;;;2.33;;
72125;SDS011;59999;51.676;22.650;2023-05-21T00:29:52;5.57;;;2.30;;
72125;SDS011;59999;51.676;22.650;2023-05-21T00:32:18;10.18;;;2.40;;
72125;SDS011;59999;51.676;22.650;2023-05-21T00:34:45;7.23;;;2.33;;
72125;SDS011;59999;51.676;22.650;2023-05-21T00:37:11;6.63;;;2.13;;
72125;SDS011;59999;51.676;22.650;2023-05-21T00:39:39;6.13;;;2.08;;
72125;SDS011;59999;51.676;22.650;2023-05-21T00:42:06;7.07;;;2.25;;
72125;SDS011;59999;51.676;22.650;2023-05-21T00:44:32;6.57;;;2.20;;
72125;SDS011;59999;51.676;22.650;2023-05-21T00:47:01;6.43;;;2.30;;
72125;SDS011;59999;51.676;22.650;2023-05-21T00:49:27;7.93;;;2.38;;
72125;SDS011;59999;51.676;22.650;2023-05-21T00:51:53;7.22;;;2.17;;
72125;SDS011;59999;51.676;22.650;2023-05-21T00:54:20;6.28;;;2.20;;
72125;SDS011;59999;51.676;22.650;2023-05-21T00:56:47;5.57;;;1.98;;
72125;SDS011;59999;51.676;22.650;2023-05-21T00:59:14;7.90;;;2.10;;
72125;SDS011;59999;51.676;22.650;2023-05-21T01:01:44;9.32;;;2.20;;
72125;SDS011;59999;51.676;22.650;2023-05-21T01:04:10;7.60;;;2.20;;
72125;SDS011;59999;51.676;22.650;2023-05-21T01:06:37;6.18;;;2.22;;
72125;SDS011;59999;51.676;22.650;2023-05-21T01:09:03;6.60;;;1.90;;
72125;SDS011;59999;51.676;22.650;2023-05-21T01:11:36;9.75;;;2.40;;
72125;SDS011;59999;51.676;22.650;2023-05-21T01:14:03;7.88;;;2.30;;
72125;SDS011;59999;51.676;22.650;2023-05-21T01:16:32;6.60;;;1.90;;
72125;SDS011;59999;51.676;22.650;2023-05-21T01:19:00;7.03;;;2.28;;
72125;SDS011;59999;51.676;22.650;2023-05-21T01:21:27;7.77;;;2.13;;
72125;SDS011;59999;51.676;22.650;2023-05-21T01:23:54;8.88;;;2.15;;
72125;SDS011;59999;51.676;22.650;2023-05-21T01:26:21;8.15;;;2.05;;
72125;SDS011;59999;51.676;22.650;2023-05-21T01:28:47;5.75;;;2.30;;
72125;SDS011;59999;51.676;22.650;2023-05-21T01:31:20;10.43;;;2.23;;
72125;SDS011;59999;51.676;22.650;2023-05-21T01:33:50;7.68;;;2.30;;
72125;SDS011;59999;51.676;22.650;2023-05-21T01:36:20;6.13;;;2.20;;
72125;SDS011;59999;51.676;22.650;2023-05-21T01:38:57;6.15;;;2.05;;
72125;SDS011;59999;51.676;22.650;2023-05-21T01:41:26;5.50;;;2.17;;
72125;SDS011;59999;51.676;22.650;2023-05-21T01:43:57;8.13;;;2.50;;
72125;SDS011;59999;51.676;22.650;2023-05-21T01:46:24;7.13;;;2.35;;
72125;SDS011;59999;51.676;22.650;2023-05-21T01:48:53;6.13;;;2.30;;
72125;SDS011;59999;51.676;22.650;2023-05-21T01:51:21;7.35;;;2.05;;
72125;SDS011;59999;51.676;22.650;2023-05-21T01:53:48;7.10;;;2.22;;
72125;SDS011;59999;51.676;22.650;2023-05-21T01:56:14;5.93;;;2.40;;
72125;SDS011;59999;51.676;22.650;2023-05-21T01:58:40;8.50;;;2.25;;
72125;SDS011;59999;51.676;22.650;2023-05-21T02:01:06;6.28;;;2.20;;
72125;SDS011;59999;51.676;22.650;2023-05-21T02:03:33;8.55;;;2.47;;
72125;SDS011;59999;51.676;22.650;2023-05-21T02:05:59;6.80;;;2.00;;
72125;SDS011;59999;51.676;22.650;2023-05-21T02:08:25;6.67;;;2.13;;
72125;SDS011;59999;51.676;22.650;2023-05-21T02:10:52;6.00;;;2.17;;
72125;SDS011;59999;51.676;22.650;2023-05-21T02:13:18;6.10;;;2.47;;
72125;SDS011;59999;51.676;22.650;2023-05-21T02:15:45;6.78;;;2.10;;
72125;SDS011;59999;51.676;22.650;2023-05-21T02:18:11;6.32;;;2.10;;
72125;SDS011;59999;51.676;22.650;2023-05-21T02:20:44;7.30;;;2.45;;
72125;SDS011;59999;51.676;22.650;2023-05-21T02:23:09;7.88;;;2.42;;
72125;SDS011;59999;51.676;22.650;2023-05-21T02:25:36;5.93;;;2.13;;
72125;SDS011;59999;51.676;22.650;2023-05-21T02:28:01;6.05;;;2.30;;
72125;SDS011;59999;51.676;22.650;2023-05-21T02:30:28;6.07;;;2.42;;
72125;SDS011;59999;51.676;22.650;2023-05-21T02:32:53;5.93;;;2.50;;
72125;SDS011;59999;51.676;22.650;2023-05-21T02:35:20;7.60;;;2.40;;
72125;SDS011;59999;51.676;22.650;2023-05-21T02:37:45;7.40;;;2.40;;
72125;SDS011;59999;51.676;22.650;2023-05-21T02:40:12;6.35;;;2.45;;
72125;SDS011;59999;51.676;22.650;2023-05-21T02:42:38;6.37;;;2.40;;
72125;SDS011;59999;51.676;22.650;2023-05-21T02:45:09;6.93;;;2.47;;
72125;SDS011;59999;51.676;22.650;2023-05-21T02:47:36;7.63;;;2.30;;
72125;SDS011;59999;51.676;22.650;2023-05-21T02:50:06;9.45;;;2.53;;
72125;SDS011;59999;51.676;22.650;2023-05-21T02:52:33;8.15;;;2.67;;
72125;SDS011;59999;51.676;22.650;2023-05-21T02:54:59;6.20;;;2.43;;
72125;SDS011;59999;51.676;22.650;2023-05-21T02:57:25;7.03;;;2.60;;
72125;SDS011;59999;51.676;22.650;2023-05-21T02:59:51;6.47;;;2.30;;
72125;SDS011;59999;51.676;22.650;2023-05-21T03:02:17;6.07;;;2.43;;
72125;SDS011;59999;51.676;22.650;2023-05-21T03:04:43;7.13;;;2.55;;
72125;SDS011;59999;51.676;22.650;2023-05-21T03:07:12;8.68;;;2.50;;
72125;SDS011;59999;51.676;22.650;2023-05-21T03:09:39;6.85;;;2.53;;
72125;SDS011;59999;51.676;22.650;2023-05-21T03:12:09;6.95;;;2.28;;
72125;SDS011;59999;51.676;22.650;2023-05-21T03:14:35;7.70;;;3.00;;
72125;SDS011;59999;51.676;22.650;2023-05-21T03:17:01;8.73;;;2.45;;
72125;SDS011;59999;51.676;22.650;2023-05-21T03:19:33;5.57;;;2.25;;
72125;SDS011;59999;51.676;22.650;2023-05-21T03:22:08;7.95;;;2.05;;
72125;SDS011;59999;51.676;22.650;2023-05-21T03:24:39;5.78;;;2.00;;
72125;SDS011;59999;51.676;22.650;2023-05-21T03:27:05;5.55;;;1.95;;
72125;SDS011;59999;51.676;22.650;2023-05-21T03:29:32;6.77;;;2.17;;
72125;SDS011;59999;51.676;22.650;2023-05-21T03:31:59;6.05;;;1.98;;
72125;SDS011;59999;51.676;22.650;2023-05-21T03:34:26;6.13;;;2.10;;
72125;SDS011;59999;51.676;22.650;2023-05-21T03:36:51;6.63;;;2.25;;
72125;SDS011;59999;51.676;22.650;2023-05-21T03:39:17;6.03;;;1.80;;
72125;SDS011;59999;51.676;22.650;2023-05-21T03:41:43;5.85;;;2.17;;
72125;SDS011;59999;51.676;22.650;2023-05-21T03:44:09;5.95;;;2.22;;
72125;SDS011;59999;51.676;22.650;2023-05-21T03:46:35;7.17;;;2.17;;
72125;SDS011;59999;51.676;22.650;2023-05-21T03:49:01;6.72;;;2.15;;
72125;SDS011;59999;51.676;22.650;2023-05-21T03:51:27;6.07;;;2.28;;
72125;SDS011;59999;51.676;22.650;2023-05-21T03:53:56;5.95;;;2.35;;
72125;SDS011;59999;51.676;22.650;2023-05-21T03:56:23;5.80;;;2.33;;
72125;SDS011;59999;51.676;22.650;2023-05-21T03:58:49;8.57;;;2.50;;
72125;SDS011;59999;51.676;22.650;2023-05-21T04:01:15;6.72;;;2.20;;
72125;SDS011;59999;51.676;22.650;2023-05-21T04:03:42;7.43;;;2.35;;
72125;SDS011;59999;51.676;22.650;2023-05-21T04:06:08;5.80;;;2.30;;
72125;SDS011;59999;51.676;22.650;2023-05-21T04:08:34;7.03;;;2.20;;
72125;SDS011;59999;51.676;22.650;2023-05-21T04:11:02;9.15;;;2.30;;
72125;SDS011;59999;51.676;22.650;2023-05-21T04:13:28;7.95;;;2.28;;
72125;SDS011;59999;51.676;22.650;2023-05-21T04:15:54;6.70;;;2.13;;
72125;SDS011;59999;51.676;22.650;2023-05-21T04:18:20;6.35;;;2.50;;
72125;SDS011;59999;51.676;22.650;2023-05-21T04:20:48;7.20;;;2.20;;
72125;SDS011;59999;51.676;22.650;2023-05-21T04:23:14;6.60;;;2.38;;
72125;SDS011;59999;51.676;22.650;2023-05-21T04:25:40;6.37;;;2.40;;
72125;SDS011;59999;51.676;22.650;2023-05-21T04:28:06;8.05;;;2.40;;
72125;SDS011;59999;51.676;22.650;2023-05-21T04:30:32;6.97;;;2.40;;
72125;SDS011;59999;51.676;22.650;2023-05-21T04:33:00;6.22;;;2.30;;
72125;SDS011;59999;51.676;22.650;2023-05-21T04:35:28;5.37;;;2.20;;
72125;SDS011;59999;51.676;22.650;2023-05-21T04:37:54;6.40;;;2.10;;
72125;SDS011;59999;51.676;22.650;2023-05-21T04:40:20;6.80;;;2.47;;
72125;SDS011;59999;51.676;22.650;2023-05-21T04:42:49;6.82;;;2.50;;
72125;SDS011;59999;51.676;22.650;2023-05-21T04:45:15;8.97;;;2.97;;
72125;SDS011;59999;51.676;22.650;2023-05-21T04:47:45;6.07;;;2.50;;
72125;SDS011;59999;51.676;22.650;2023-05-21T04:50:12;6.90;;;2.40;;
72125;SDS011;59999;51.676;22.650;2023-05-21T04:52:39;5.97;;;2.35;;
72125;SDS011;59999;51.676;22.650;2023-05-21T04:55:05;7.50;;;2.50;;
72125;SDS011;59999;51.676;22.650;2023-05-21T04:57:32;6.50;;;2.70;;
72125;SDS011;59999;51.676;22.650;2023-05-21T04:59:58;8.52;;;2.78;;
72125;SDS011;59999;51.676;22.650;2023-05-21T05:02:24;7.88;;;2.47;;
72125;SDS011;59999;51.676;22.650;2023-05-21T05:04:50;6.40;;;2.17;;
72125;SDS011;59999;51.676;22.650;2023-05-21T05:07:16;6.50;;;2.53;;
72125;SDS011;59999;51.676;22.650;2023-05-21T05:09:42;6.40;;;2.80;;
72125;SDS011;59999;51.676;22.650;2023-05-21T05:12:08;6.72;;;2.33;;
72125;SDS011;59999;51.676;22.650;2023-05-21T05:14:34;6.17;;;2.60;;
72125;SDS011;59999;51.676;22.650;2023-05-21T05:17:00;6.63;;;2.58;;
72125;SDS011;59999;51.676;22.650;2023-05-21T05:19:26;6.68;;;2.55;;
72125;SDS011;59999;51.676;22.650;2023-05-21T05:21:52;6.15;;;2.45;;
72125;SDS011;59999;51.676;22.650;2023-05-21T05:24:18;5.57;;;2.47;;
72125;SDS011;59999;51.676;22.650;2023-05-21T05:26:44;6.88;;;2.72;;
72125;SDS011;59999;51.676;22.650;2023-05-21T05:29:10;5.78;;;2.42;;
72125;SDS011;59999;51.676;22.650;2023-05-21T05:31:36;5.43;;;2.20;;
72125;SDS011;59999;51.676;22.650;2023-05-21T05:34:02;5.63;;;2.00;;
72125;SDS011;59999;51.676;22.650;2023-05-21T05:36:28;6.53;;;2.58;;
72125;SDS011;59999;51.676;22.650;2023-05-21T05:38:54;5.88;;;2.40;;
72125;SDS011;59999;51.676;22.650;2023-05-21T05:41:20;5.90;;;2.13;;
72125;SDS011;59999;51.676;22.650;2023-05-21T05:43:46;8.90;;;2.42;;
72125;SDS011;59999;51.676;22.650;2023-05-21T05:46:13;10.05;;;2.45;;
72125;SDS011;59999;51.676;22.650;2023-05-21T05:48:38;5.95;;;2.50;;
72125;SDS011;59999;51.676;22.650;2023-05-21T05:51:05;8.60;;;2.80;;
72125;SDS011;59999;51.676;22.650;2023-05-21T05:53:30;7.93;;;2.53;;
72125;SDS011;59999;51.676;22.650;2023-05-21T05:55:57;7.28;;;2.55;;
72125;SDS011;59999;51.676;22.650;2023-05-21T05:58:24;6.63;;;2.60;;
72125;SDS011;59999;51.676;22.650;2023-05-21T06:00:50;6.00;;;2.63;;
72125;SDS011;59999;51.676;22.650;2023-05-21T06:03:16;6.45;;;2.78;;
72125;SDS011;59999;51.676;22.650;2023-05-21T06:05:43;7.00;;;2.63;;
72125;SDS011;59999;51.676;22.650;2023-05-21T06:08:09;8.40;;;2.47;;
72125;SDS011;59999;51.676;22.650;2023-05-21T06:10:35;6.20;;;2.60;;
72125;SDS011;59999;51.676;22.650;2023-05-21T06:13:01;4.93;;;2.38;;
72125;SDS011;59999;51.676;22.650;2023-05-21T06:15:27;5.75;;;2.58;;
72125;SDS011;59999;51.676;22.650;2023-05-21T06:17:53;5.82;;;2.60;;
72125;SDS011;59999;51.676;22.650;2023-05-21T06:20:19;6.77;;;2.50;;
72125;SDS011;59999;51.676;22.650;2023-05-21T06:22:45;6.68;;;2.78;;
72125;SDS011;59999;51.676;22.650;2023-05-21T06:25:11;6.20;;;3.05;;
72125;SDS011;59999;51.676;22.650;2023-05-21T06:27:37;5.90;;;2.50;;
72125;SDS011;59999;51.676;22.650;2023-05-21T06:30:03;5.47;;;2.60;;
72125;SDS011;59999;51.676;22.650;2023-05-21T06:32:29;7.88;;;2.58;;
72125;SDS011;59999;51.676;22.650;2023-05-21T06:34:55;6.63;;;2.85;;
72125;SDS011;59999;51.676;22.650;2023-05-21T06:37:21;6.53;;;2.70;;
72125;SDS011;59999;51.676;22.650;2023-05-21T06:39:47;7.05;;;2.50;;
72125;SDS011;59999;51.676;22.650;2023-05-21T06:42:13;6.60;;;2.70;;
72125;SDS011;59999;51.676;22.650;2023-05-21T06:44:39;8.02;;;2.50;;
72125;SDS011;59999;51.676;22.650;2023-05-21T06:47:05;6.53;;;2.57;;
72125;SDS011;59999;51.676;22.650;2023-05-21T06:49:31;5.97;;;2.65;;
72125;SDS011;59999;51.676;22.650;2023-05-21T06:51:57;5.97;;;2.40;;
72125;SDS011;59999;51.676;22.650;2023-05-21T06:54:23;6.28;;;2.50;;
72125;SDS011;59999;51.676;22.650;2023-05-21T06:56:49;6.37;;;2.57;;
72125;SDS011;59999;51.676;22.650;2023-05-21T06:59:15;6.60;;;2.50;;
72125;SDS011;59999;51.676;22.650;2023-05-21T07:01:41;9.45;;;2.45;;
72125;SDS011;59999;51.676;22.650;2023-05-21T07:04:08;6.43;;;2.50;;
72125;SDS011;59999;51.676;22.650;2023-05-21T07:06:35;8.57;;;2.28;;
72125;SDS011;59999;51.676;22.650;2023-05-21T07:09:02;7.53;;;2.40;;
72125;SDS011;59999;51.676;22.650;2023-05-21T07:11:30;6.57;;;2.42;;
72125;SDS011;59999;51.676;22.650;2023-05-21T07:13:57;8.13;;;3.30;;
72125;SDS011;59999;51.676;22.650;2023-05-21T07:16:28;6.55;;;2.45;;
72125;SDS011;59999;51.676;22.650;2023-05-21T07:18:54;6.55;;;2.38;;
72125;SDS011;59999;51.676;22.650;2023-05-21T07:21:20;5.33;;;2.20;;
72125;SDS011;59999;51.676;22.650;2023-05-21T07:23:46;8.88;;;2.58;;
72125;SDS011;59999;51.676;22.650;2023-05-21T07:26:12;6.28;;;2.30;;
72125;SDS011;59999;51.676;22.650;2023-05-21T07:28:38;8.13;;;2.17;;
72125;SDS011;59999;51.676;22.650;2023-05-21T07:31:04;6.93;;;2.40;;
72125;SDS011;59999;51.676;22.650;2023-05-21T07:33:30;5.72;;;2.30;;
72125;SDS011;59999;51.676;22.650;2023-05-21T07:35:56;6.07;;;2.50;;
72125;SDS011;59999;51.676;22.650;2023-05-21T07:38:22;7.00;;;2.40;;
72125;SDS011;59999;51.676;22.650;2023-05-21T07:40:48;5.82;;;2.20;;
72125;SDS011;59999;51.676;22.650;2023-05-21T07:43:14;7.70;;;2.35;;
72125;SDS011;59999;51.676;22.650;2023-05-21T07:45:40;5.87;;;2.33;;
72125;SDS011;59999;51.676;22.650;2023-05-21T07:48:06;6.03;;;2.40;;
72125;SDS011;59999;51.676;22.650;2023-05-21T07:50:32;5.78;;;2.40;;
72125;SDS011;59999;51.676;22.650;2023-05-21T07:52:59;5.85;;;2.38;;
72125;SDS011;59999;51.676;22.650;2023-05-21T07:55:25;5.80;;;2.63;;
72125;SDS011;59999;51.676;22.650;2023-05-21T07:57:51;6.57;;;2.50;;
72125;SDS011;59999;51.676;22.650;2023-05-21T08:00:17;6.35;;;2.40;;
72125;SDS011;59999;51.676;22.650;2023-05-21T08:02:44;4.88;;;2.15;;
72125;SDS011;59999;51.676;22.650;2023-05-21T08:05:09;4.87;;;2.00;;
72125;SDS011;59999;51.676;22.650;2023-05-21T08:07:35;7.05;;;2.10;;
72125;SDS011;59999;51.676;22.650;2023-05-21T08:10:02;6.03;;;2.25;;
72125;SDS011;59999;51.676;22.650;2023-05-21T08:12:28;6.57;;;2.25;;
72125;SDS011;59999;51.676;22.650;2023-05-21T08:14:55;8.50;;;2.00;;
72125;SDS011;59999;51.676;22.650;2023-05-21T08:17:21;5.82;;;2.22;;
72125;SDS011;59999;51.676;22.650;2023-05-21T08:19:48;6.20;;;2.55;;
72125;SDS011;59999;51.676;22.650;2023-05-21T08:22:13;5.20;;;2.10;;
72125;SDS011;59999;51.676;22.650;2023-05-21T08:24:40;4.97;;;2.10;;
72125;SDS011;59999;51.676;22.650;2023-05-21T08:27:06;4.45;;;2.00;;
72125;SDS011;59999;51.676;22.650;2023-05-21T08:29:32;6.93;;;2.60;;
72125;SDS011;59999;51.676;22.650;2023-05-21T08:31:58;5.70;;;2.28;;
72125;SDS011;59999;51.676;22.650;2023-05-21T08:34:24;6.13;;;2.20;;
72125;SDS011;59999;51.676;22.650;2023-05-21T08:36:50;6.67;;;2.00;;
72125;SDS011;59999;51.676;22.650;2023-05-21T08:39:18;5.85;;;2.30;;
72125;SDS011;59999;51.676;22.650;2023-05-21T08:41:45;6.75;;;2.10;;
72125;SDS011;59999;51.676;22.650;2023-05-21T08:44:14;5.78;;;2.00;;
72125;SDS011;59999;51.676;22.650;2023-05-21T08:46:45;5.10;;;1.92;;
72125;SDS011;59999;51.676;22.650;2023-05-21T08:49:15;6.87;;;2.40;;
72125;SDS011;59999;51.676;22.650;2023-05-21T08:51:43;7.20;;;2.10;;
72125;SDS011;59999;51.676;22.650;2023-05-21T08:54:10;4.85;;;1.80;;
72125;SDS011;59999;51.676;22.650;2023-05-21T08:56:39;4.55;;;2.00;;
72125;SDS011;59999;51.676;22.650;2023-05-21T08:59:11;4.40;;;1.90;;
72125;SDS011;59999;51.676;22.650;2023-05-21T09:01:38;4.07;;;1.57;;
72125;SDS011;59999;51.676;22.650;2023-05-21T09:04:07;6.03;;;1.80;;
72125;SDS011;59999;51.676;22.650;2023-05-21T09:06:33;6.32;;;1.90;;
72125;SDS011;59999;51.676;22.650;2023-05-21T09:09:01;4.50;;;1.70;;
72125;SDS011;59999;51.676;22.650;2023-05-21T09:11:32;4.47;;;1.85;;
72125;SDS011;59999;51.676;22.650;2023-05-21T09:13:58;5.13;;;2.00;;
72125;SDS011;59999;51.676;22.650;2023-05-21T09:16:25;5.70;;;1.75;;
72125;SDS011;59999;51.676;22.650;2023-05-21T09:18:51;4.30;;;1.70;;
72125;SDS011;59999;51.676;22.650;2023-05-21T09:21:25;5.53;;;1.80;;
72125;SDS011;59999;51.676;22.650;2023-05-21T09:23:56;8.33;;;2.33;;
72125;SDS011;59999;51.676;22.650;2023-05-21T09:26:23;6.78;;;1.60;;
72125;SDS011;59999;51.676;22.650;2023-05-21T09:28:50;4.72;;;1.58;;
72125;SDS011;59999;51.676;22.650;2023-05-21T09:31:16;3.72;;;1.40;;
72125;SDS011;59999;51.676;22.650;2023-05-21T09:33:45;4.82;;;1.50;;
72125;SDS011;59999;51.676;22.650;2023-05-21T09:36:16;5.20;;;1.97;;
72125;SDS011;59999;51.676;22.650;2023-05-21T09:38:45;7.20;;;2.47;;
72125;SDS011;59999;51.676;22.650;2023-05-21T09:41:12;4.88;;;1.65;;
72125;SDS011;59999;51.676;22.650;2023-05-21T09:43:40;5.85;;;1.63;;
72125;SDS011;59999;51.676;22.650;2023-05-21T09:46:08;4.35;;;1.60;;
72125;SDS011;59999;51.676;22.650;2023-05-21T09:48:38;6.43;;;1.97;;
72125;SDS011;59999;51.676;22.650;2023-05-21T09:51:07;5.68;;;1.80;;
72125;SDS011;59999;51.676;22.650;2023-05-21T09:53:33;3.40;;;1.58;;
72125;SDS011;59999;51.676;22.650;2023-05-21T09:55:58;5.93;;;1.90;;
72125;SDS011;59999;51.676;22.650;2023-05-21T09:58:25;5.30;;;1.70;;
72125;SDS011;59999;51.676;22.650;2023-05-21T10:00:51;7.28;;;1.73;;
72125;SDS011;59999;51.676;22.650;2023-05-21T10:03:17;4.18;;;1.60;;
72125;SDS011;59999;51.676;22.650;2023-05-21T10:05:47;5.30;;;1.63;;
72125;SDS011;59999;51.676;22.650;2023-05-21T10:08:17;6.03;;;1.47;;
72125;SDS011;59999;51.676;22.650;2023-05-21T10:10:45;6.05;;;1.42;;
72125;SDS011;59999;51.676;22.650;2023-05-21T10:13:14;5.65;;;1.60;;
72125;SDS011;59999;51.676;22.650;2023-05-21T10:15:46;5.22;;;2.00;;
72125;SDS011;59999;51.676;22.650;2023-05-21T10:18:15;3.63;;;1.35;;
72125;SDS011;59999;51.676;22.650;2023-05-21T10:20:43;4.17;;;1.30;;
72125;SDS011;59999;51.676;22.650;2023-05-21T10:23:10;4.88;;;1.40;;
72125;SDS011;59999;51.676;22.650;2023-05-21T10:25:37;3.95;;;1.42;;
72125;SDS011;59999;51.676;22.650;2023-05-21T10:28:04;4.95;;;1.70;;
72125;SDS011;59999;51.676;22.650;2023-05-21T10:30:31;6.05;;;1.60;;
72125;SDS011;59999;51.676;22.650;2023-05-21T10:32:58;5.13;;;1.60;;
72125;SDS011;59999;51.676;22.650;2023-05-21T10:35:26;3.90;;;1.33;;
72125;SDS011;59999;51.676;22.650;2023-05-21T10:37:52;4.55;;;1.60;;
72125;SDS011;59999;51.676;22.650;2023-05-21T10:40:18;3.15;;;0.98;;
72125;SDS011;59999;51.676;22.650;2023-05-21T10:56:53;5.40;;;1.40;;
72125;SDS011;59999;51.676;22.650;2023-05-21T10:59:49;4.77;;;1.20;;
72125;SDS011;59999;51.676;22.650;2023-05-21T11:02:16;4.55;;;1.20;;
72125;SDS011;59999;51.676;22.650;2023-05-21T11:04:44;5.50;;;1.60;;
72125;SDS011;59999;51.676;22.650;2023-05-21T11:07:13;5.75;;;1.77;;
72125;SDS011;59999;51.676;22.650;2023-05-21T11:09:40;3.75;;;1.50;;
72125;SDS011;59999;51.676;22.650;2023-05-21T11:12:06;3.60;;;1.20;;
72125;SDS011;59999;51.676;22.650;2023-05-21T11:19:41;5.68;;;1.55;;
72125;SDS011;59999;51.676;22.650;2023-05-21T11:22:08;4.67;;;1.50;;
72125;SDS011;59999;51.676;22.650;2023-05-21T11:24:46;4.30;;;1.45;;
72125;SDS011;59999;51.676;22.650;2023-05-21T11:27:12;4.00;;;1.50;;
72125;SDS011;59999;51.676;22.650;2023-05-21T11:29:39;6.10;;;2.03;;
72125;SDS011;59999;51.676;22.650;2023-05-21T11:32:07;5.45;;;1.80;;
72125;SDS011;59999;51.676;22.650;2023-05-21T11:34:41;5.50;;;1.73;;
72125;SDS011;59999;51.676;22.650;2023-05-21T11:39:49;4.45;;;1.63;;
72125;SDS011;59999;51.676;22.650;2023-05-21T11:42:49;5.63;;;1.55;;
72125;SDS011;59999;51.676;22.650;2023-05-21T11:45:08;4.63;;;1.45;;
72125;SDS011;59999;51.676;22.650;2023-05-21T11:47:34;4.17;;;1.60;;
72125;SDS011;59999;51.676;22.650;2023-05-21T11:50:02;4.88;;;1.85;;
72125;SDS011;59999;51.676;22.650;2023-05-21T11:52:29;4.60;;;1.77;;
72125;SDS011;59999;51.676;22.650;2023-05-21T11:54:56;8.07;;;1.70;;
72125;SDS011;59999;51.676;22.650;2023-05-21T11:57:24;5.32;;;1.60;;
72125;SDS011;59999;51.676;22.650;2023-05-21T11:59:56;4.20;;;1.60;;
72125;SDS011;59999;51.676;22.650;2023-05-21T12:02:24;7.50;;;1.75;;
72125;SDS011;59999;51.676;22.650;2023-05-21T12:04:52;7.18;;;1.70;;
72125;SDS011;59999;51.676;22.650;2023-05-21T12:07:18;5.43;;;1.48;;
72125;SDS011;59999;51.676;22.650;2023-05-21T12:09:46;4.20;;;1.50;;
72125;SDS011;59999;51.676;22.650;2023-05-21T12:12:18;3.97;;;1.50;;
72125;SDS011;59999;51.676;22.650;2023-05-21T12:14:48;5.40;;;1.52;;
72125;SDS011;59999;51.676;22.650;2023-05-21T12:17:16;5.20;;;1.70;;
72125;SDS011;59999;51.676;22.650;2023-05-21T12:19:43;4.57;;;1.88;;
72125;SDS011;59999;51.676;22.650;2023-05-21T12:22:10;4.63;;;1.50;;
72125;SDS011;59999;51.676;22.650;2023-05-21T12:24:37;4.00;;;1.60;;
72125;SDS011;59999;51.676;22.650;2023-05-21T12:27:04;4.82;;;1.58;;
72125;SDS011;59999;51.676;22.650;2023-05-21T12:29:35;5.32;;;1.90;;
72125;SDS011;59999;51.676;22.650;2023-05-21T12:32:03;5.28;;;1.58;;
72125;SDS011;59999;51.676;22.650;2023-05-21T12:34:41;5.00;;;1.60;;
72125;SDS011;59999;51.676;22.650;2023-05-21T12:37:21;4.80;;;1.70;;
72125;SDS011;59999;51.676;22.650;2023-05-21T12:39:52;4.68;;;1.60;;
72125;SDS011;59999;51.676;22.650;2023-05-21T12:42:25;4.20;;;1.70;;
72125;SDS011;59999;51.676;22.650;2023-05-21T12:44:52;4.90;;;1.63;;
72125;SDS011;59999;51.676;22.650;2023-05-21T12:47:18;3.70;;;1.60;;
72125;SDS011;59999;51.676;22.650;2023-05-21T12:49:57;4.60;;;1.80;;
72125;SDS011;59999;51.676;22.650;2023-05-21T12:52:27;4.70;;;1.58;;
72125;SDS011;59999;51.676;22.650;2023-05-21T12:54:54;4.38;;;1.55;;
72125;SDS011;59999;51.676;22.650;2023-05-21T12:57:21;3.97;;;1.55;;
72125;SDS011;59999;51.676;22.650;2023-05-21T12:59:56;5.05;;;1.83;;
72125;SDS011;59999;51.676;22.650;2023-05-21T13:02:33;4.57;;;1.53;;
72125;SDS011;59999;51.676;22.650;2023-05-21T13:05:04;4.72;;;1.80;;
72125;SDS011;59999;51.676;22.650;2023-05-21T13:07:35;4.38;;;1.50;;
72125;SDS011;59999;51.676;22.650;2023-05-21T13:10:03;6.25;;;1.90;;
72125;SDS011;59999;51.676;22.650;2023-05-21T13:12:30;6.35;;;1.77;;
72125;SDS011;59999;51.676;22.650;2023-05-21T13:14:57;4.47;;;1.80;;
72125;SDS011;59999;51.676;22.650;2023-05-21T13:17:25;5.22;;;2.03;;
72125;SDS011;59999;51.676;22.650;2023-05-21T13:22:33;5.55;;;1.88;;
72125;SDS011;59999;51.676;22.650;2023-05-21T13:25:01;4.20;;;1.67;;
72125;SDS011;59999;51.676;22.650;2023-05-21T13:27:27;6.23;;;1.90;;
72125;SDS011;59999;51.676;22.650;2023-05-21T13:29:53;4.38;;;2.03;;
72125;SDS011;59999;51.676;22.650;2023-05-21T13:32:19;6.72;;;1.98;;
72125;SDS011;59999;51.676;22.650;2023-05-21T13:34:45;6.68;;;1.88;;
72125;SDS011;59999;51.676;22.650;2023-05-21T13:37:12;4.25;;;1.70;;
72125;SDS011;59999;51.676;22.650;2023-05-21T13:39:39;5.87;;;1.70;;
72125;SDS011;59999;51.676;22.650;2023-05-21T13:42:05;6.88;;;1.60;;
72125;SDS011;59999;51.676;22.650;2023-05-21T13:44:32;6.18;;;1.90;;
72125;SDS011;59999;51.676;22.650;2023-05-21T13:47:00;4.22;;;1.70;;
72125;SDS011;59999;51.676;22.650;2023-05-21T13:49:27;5.05;;;1.90;;
72125;SDS011;59999;51.676;22.650;2023-05-21T13:51:53;4.53;;;2.07;;
72125;SDS011;59999;51.676;22.650;2023-05-21T13:54:19;19.45;;;2.65;;
72125;SDS011;59999;51.676;22.650;2023-05-21T13:56:45;4.30;;;1.40;;
72125;SDS011;59999;51.676;22.650;2023-05-21T13:59:12;4.82;;;1.70;;
72125;SDS011;59999;51.676;22.650;2023-05-21T14:01:37;4.10;;;1.87;;
72125;SDS011;59999;51.676;22.650;2023-05-21T14:04:03;5.47;;;1.67;;
72125;SDS011;59999;51.676;22.650;2023-05-21T14:06:30;4.57;;;1.92;;
72125;SDS011;59999;51.676;22.650;2023-05-21T14:08:57;4.95;;;2.13;;
72125;SDS011;59999;51.676;22.650;2023-05-21T14:11:24;5.43;;;1.87;;
72125;SDS011;59999;51.676;22.650;2023-05-21T14:13:52;5.20;;;1.90;;
72125;SDS011;59999;51.676;22.650;2023-05-21T14:16:18;6.47;;;1.85;;
72125;SDS011;59999;51.676;22.650;2023-05-21T14:18:45;4.63;;;2.13;;
72125;SDS011;59999;51.676;22.650;2023-05-21T14:21:10;5.87;;;1.90;;
72125;SDS011;59999;51.676;22.650;2023-05-21T14:23:36;4.30;;;1.90;;
72125;SDS011;59999;51.676;22.650;2023-05-21T14:26:02;4.65;;;2.10;;
72125;SDS011;59999;51.676;22.650;2023-05-21T14:28:28;4.93;;;2.10;;
72125;SDS011;59999;51.676;22.650;2023-05-21T14:30:54;4.40;;;1.97;;
72125;SDS011;59999;51.676;22.650;2023-05-21T14:33:20;5.95;;;2.15;;
72125;SDS011;59999;51.676;22.650;2023-05-21T14:35:47;5.97;;;2.00;;
72125;SDS011;59999;51.676;22.650;2023-05-21T14:38:13;5.40;;;2.00;;
72125;SDS011;59999;51.676;22.650;2023-05-21T14:40:39;4.78;;;1.83;;
72125;SDS011;59999;51.676;22.650;2023-05-21T14:43:05;5.68;;;1.80;;
72125;SDS011;59999;51.676;22.650;2023-05-21T14:45:31;4.95;;;2.15;;
72125;SDS011;59999;51.676;22.650;2023-05-21T14:48:00;4.73;;;1.93;;
72125;SDS011;59999;51.676;22.650;2023-05-21T14:50:27;4.35;;;2.00;;
72125;SDS011;59999;51.676;22.650;2023-05-21T14:52:53;5.10;;;1.90;;
72125;SDS011;59999;51.676;22.650;2023-05-21T14:55:19;4.50;;;2.25;;
72125;SDS011;59999;51.676;22.650;2023-05-21T14:57:47;4.57;;;1.90;;